Time;durP1;ratioP1;P1;durP2;ratioP2;P2;SDS_P1;SDS_P2;PMS_P1;PMS_P2;Temp;Humidity;BMP_temperature;BMP_pressure;BME280_temperature;BME280_humidity;BME280_pressure;Samples;Min_cycle;Max_cycle;Signal;HPM_P1;HPM_P2
2022/06/14 00:01:10;;;;;;;60.60;4.50;;;;;;;;;;5106023;28;20543;-81
2022/06/14 00:03:39;;;;;;;61.37;4.53;;;;;;;;;;5104974;28;20478;-81
2022/06/14 00:06:07;;;;;;;60.27;4.17;;;;;;;;;;5104167;28;20546;-81
2022/06/14 00:08:35;;;;;;;60.43;4.50;;;;;;;;;;5103459;28;20509;-80
2022/06/14 00:11:03;;;;;;;60.20;4.43;;;;;;;;;;5103397;28;20481;-81
2022/06/14 00:13:30;;;;;;;61.10;4.33;;;;;;;;;;5103997;28;20494;-81
2022/06/14 00:15:57;;;;;;;61.40;4.77;;;;;;;;;;5103844;28;20458;-80
2022/06/14 00:18:26;;;;;;;62.90;5.30;;;;;;;;;;5102898;28;20484;-80
2022/06/14 00:20:53;;;;;;;60.30;4.57;;;;;;;;;;5103337;28;20442;-79
2022/06/14 00:23:22;;;;;;;60.47;4.50;;;;;;;;;;5111796;28;20561;-80
2022/06/14 00:25:51;;;;;;;67.00;5.07;;;;;;;;;;5103258;28;20482;-80
2022/06/14 00:28:18;;;;;;;61.87;5.00;;;;;;;;;;5102667;28;20500;-81
2022/06/14 00:30:47;;;;;;;60.93;4.93;;;;;;;;;;5102576;28;20453;-79
2022/06/14 00:33:15;;;;;;;59.87;4.40;;;;;;;;;;5102828;28;20542;-81
2022/06/14 00:35:43;;;;;;;60.70;5.00;;;;;;;;;;5102772;28;20446;-80
2022/06/14 00:38:11;;;;;;;62.47;4.90;;;;;;;;;;5101989;28;20993;-81
2022/06/14 00:40:38;;;;;;;62.77;5.47;;;;;;;;;;5102412;28;20525;-80
2022/06/14 00:43:13;;;;;;;63.10;4.50;;;;;;;;;;5102136;28;20447;-80
2022/06/14 00:45:59;;;;;;;60.13;4.20;;;;;;;;;;5100620;28;20513;-80
2022/06/14 00:48:27;;;;;;;63.77;4.63;;;;;;;;;;5105306;28;20514;-80
2022/06/14 00:51:01;;;;;;;61.87;5.33;;;;;;;;;;5104157;28;20455;-81
2022/06/14 00:53:30;;;;;;;61.77;4.67;;;;;;;;;;5103455;28;20533;-80
2022/06/14 00:55:59;;;;;;;61.47;4.53;;;;;;;;;;5103793;28;20458;-81
2022/06/14 00:58:28;;;;;;;60.53;4.73;;;;;;;;;;5103890;28;20542;-80
2022/06/14 01:00:57;;;;;;;65.43;5.07;;;;;;;;;;5102864;28;20465;-80
2022/06/14 01:03:25;;;;;;;63.90;4.97;;;;;;;;;;5104233;28;20498;-81
2022/06/14 01:06:07;;;;;;;61.17;4.67;;;;;;;;;;5104126;28;20517;-81
2022/06/14 01:08:37;;;;;;;62.10;4.70;;;;;;;;;;5102248;28;20462;-81
2022/06/14 01:11:05;;;;;;;61.07;4.50;;;;;;;;;;5103494;28;20875;-80
2022/06/14 01:13:32;;;;;;;60.27;4.40;;;;;;;;;;5103310;28;20473;-82
2022/06/14 01:16:00;;;;;;;60.80;5.10;;;;;;;;;;5103092;28;21022;-81
2022/06/14 01:18:27;;;;;;;60.37;4.50;;;;;;;;;;5101880;28;20539;-80
2022/06/14 01:20:54;;;;;;;60.30;4.53;;;;;;;;;;5103186;28;20450;-81
2022/06/14 01:23:23;;;;;;;61.13;4.63;;;;;;;;;;5103497;28;20473;-81
2022/06/14 01:25:52;;;;;;;61.00;5.30;;;;;;;;;;5103373;28;20482;-81
2022/06/14 01:28:21;;;;;;;60.30;4.40;;;;;;;;;;5103481;28;20484;-82
2022/06/14 01:30:49;;;;;;;62.50;4.60;;;;;;;;;;5103642;28;20494;-81
2022/06/14 01:33:18;;;;;;;60.87;4.40;;;;;;;;;;5104029;28;20546;-81
2022/06/14 01:35:47;;;;;;;60.20;4.20;;;;;;;;;;5105466;28;20480;-80
2022/06/14 01:38:15;;;;;;;63.07;5.13;;;;;;;;;;5101590;28;20553;-81
2022/06/14 01:40:47;;;;;;;60.60;4.57;;;;;;;;;;5103279;28;20509;-81
2022/06/14 01:43:23;;;;;;;61.63;4.80;;;;;;;;;;5102876;28;20544;-81
2022/06/14 01:45:55;;;;;;;60.90;4.30;;;;;;;;;;5102113;28;20485;-80
2022/06/14 01:48:24;;;;;;;60.47;4.47;;;;;;;;;;5101396;28;20512;-81
2022/06/14 01:53:46;;;;;;;61.23;4.80;;;;;;;;;;5100818;28;20789;-81
2022/06/14 01:56:17;;;;;;;60.50;4.07;;;;;;;;;;5102511;28;20534;-80
2022/06/14 01:58:46;;;;;;;60.57;4.67;;;;;;;;;;5101944;28;20962;-81
2022/06/14 02:01:17;;;;;;;62.87;5.73;;;;;;;;;;5101835;28;20447;-81
2022/06/14 02:06:34;;;;;;;62.37;5.97;;;;;;;;;;5100787;28;20490;-80
2022/06/14 02:09:04;;;;;;;60.40;4.30;;;;;;;;;;5101269;28;20464;-81
2022/06/14 02:11:34;;;;;;;60.63;4.97;;;;;;;;;;5100798;28;20457;-81
2022/06/14 02:14:05;;;;;;;60.17;4.50;;;;;;;;;;5100771;28;20430;-81
2022/06/14 02:16:35;;;;;;;60.30;5.07;;;;;;;;;;5101570;28;20477;-80
2022/06/14 02:19:05;;;;;;;64.50;4.60;;;;;;;;;;5101365;28;20466;-80
2022/06/14 02:21:34;;;;;;;61.27;4.63;;;;;;;;;;5101146;28;20447;-80
2022/06/14 02:24:03;;;;;;;61.27;4.70;;;;;;;;;;5101284;28;20533;-82
2022/06/14 02:26:31;;;;;;;62.40;4.93;;;;;;;;;;5101132;28;20482;-80
2022/06/14 02:29:03;;;;;;;60.40;4.73;;;;;;;;;;5101303;28;20517;-81
2022/06/14 02:31:33;;;;;;;79.50;5.90;;;;;;;;;;5101400;28;20518;-80
2022/06/14 02:34:05;;;;;;;61.63;4.90;;;;;;;;;;5104978;28;20466;-80
2022/06/14 02:36:34;;;;;;;60.60;4.70;;;;;;;;;;5105924;28;20439;-80
2022/06/14 02:39:03;;;;;;;60.47;4.83;;;;;;;;;;5104132;28;20458;-80
2022/06/14 02:41:34;;;;;;;60.10;4.40;;;;;;;;;;5105045;28;20446;-81
2022/06/14 02:44:07;;;;;;;62.20;4.30;;;;;;;;;;5104697;28;20522;-79
2022/06/14 02:46:36;;;;;;;63.70;4.87;;;;;;;;;;5105293;28;20482;-80
2022/06/14 02:49:05;;;;;;;61.37;4.57;;;;;;;;;;5104590;28;20539;-80
2022/06/14 02:51:35;;;;;;;61.80;5.20;;;;;;;;;;5104339;28;20521;-81
2022/06/14 02:54:06;;;;;;;62.23;5.73;;;;;;;;;;5103846;28;20529;-81
2022/06/14 02:56:36;;;;;;;60.67;4.50;;;;;;;;;;5104195;28;20495;-79
2022/06/14 02:59:07;;;;;;;62.30;4.50;;;;;;;;;;5104022;28;20454;-80
2022/06/14 03:01:38;;;;;;;61.07;4.93;;;;;;;;;;5103748;28;20518;-80
2022/06/14 03:04:08;;;;;;;61.37;5.10;;;;;;;;;;5107100;28;20537;-80
2022/06/14 03:06:38;;;;;;;60.90;4.57;;;;;;;;;;5106815;28;20569;-80
2022/06/14 03:09:06;;;;;;;61.77;4.80;;;;;;;;;;5106871;28;20495;-80
2022/06/14 03:11:41;;;;;;;63.93;5.17;;;;;;;;;;5107221;28;20454;-80
2022/06/14 03:14:15;;;;;;;60.17;4.50;;;;;;;;;;5106980;28;20521;-80
2022/06/14 03:16:47;;;;;;;60.37;4.30;;;;;;;;;;5107394;28;20454;-80
2022/06/14 03:19:18;;;;;;;67.13;5.00;;;;;;;;;;5107464;28;20430;-80
2022/06/14 03:21:49;;;;;;;62.83;4.43;;;;;;;;;;5106856;28;20469;-80
2022/06/14 03:24:20;;;;;;;61.17;5.00;;;;;;;;;;5108195;28;20521;-80
2022/06/14 03:26:52;;;;;;;62.80;5.10;;;;;;;;;;5107734;28;20511;-80
2022/06/14 03:29:24;;;;;;;60.87;4.60;;;;;;;;;;5106451;28;21000;-81
2022/06/14 03:31:53;;;;;;;61.57;4.30;;;;;;;;;;5107795;28;20474;-81
2022/06/14 03:34:23;;;;;;;61.70;5.03;;;;;;;;;;5110148;28;20638;-81
2022/06/14 03:36:52;;;;;;;61.20;5.00;;;;;;;;;;5109819;28;20458;-80
2022/06/14 03:39:21;;;;;;;63.97;5.40;;;;;;;;;;5106964;28;20497;-80
2022/06/14 03:41:50;;;;;;;60.07;4.00;;;;;;;;;;5106670;28;20466;-80
2022/06/14 03:44:18;;;;;;;61.70;4.50;;;;;;;;;;5107094;28;20474;-80
2022/06/14 03:46:51;;;;;;;60.67;4.47;;;;;;;;;;5106417;28;20489;-80
2022/06/14 03:49:21;;;;;;;61.70;3.90;;;;;;;;;;5106082;28;20457;-80
2022/06/14 03:51:53;;;;;;;61.13;4.90;;;;;;;;;;5107042;28;20457;-80
2022/06/14 03:54:28;;;;;;;61.73;4.50;;;;;;;;;;5106985;28;20489;-80
2022/06/14 03:57:12;;;;;;;66.40;5.60;;;;;;;;;;5107654;28;20445;-80
2022/06/14 03:59:48;;;;;;;60.97;5.23;;;;;;;;;;5107149;28;20453;-80
2022/06/14 04:02:20;;;;;;;61.00;4.83;;;;;;;;;;5106968;28;20478;-80
2022/06/14 04:04:52;;;;;;;61.30;4.73;;;;;;;;;;5106783;28;20525;-80
2022/06/14 04:07:22;;;;;;;60.50;4.57;;;;;;;;;;5106490;28;20499;-80
2022/06/14 04:09:52;;;;;;;60.97;4.80;;;;;;;;;;5106704;28;20477;-80
2022/06/14 04:12:23;;;;;;;61.80;5.00;;;;;;;;;;5107162;28;20498;-81
2022/06/14 04:15:00;;;;;;;60.00;4.10;;;;;;;;;;5107197;28;21028;-79
2022/06/14 04:17:32;;;;;;;61.77;5.07;;;;;;;;;;5106033;28;20498;-80
2022/06/14 04:20:03;;;;;;;63.03;5.23;;;;;;;;;;5107205;28;20509;-79
2022/06/14 04:22:35;;;;;;;61.03;4.37;;;;;;;;;;5107179;28;20543;-80
2022/06/14 04:25:05;;;;;;;60.00;4.37;;;;;;;;;;5106644;28;20521;-80
2022/06/14 04:27:33;;;;;;;61.17;4.60;;;;;;;;;;5105265;28;20474;-80
2022/06/14 04:30:04;;;;;;;61.37;4.80;;;;;;;;;;5106126;28;20522;-80
2022/06/14 04:32:34;;;;;;;61.77;5.77;;;;;;;;;;5106126;28;20470;-80
2022/06/14 04:35:05;;;;;;;62.07;5.40;;;;;;;;;;5105021;28;20506;-80
2022/06/14 04:37:34;;;;;;;61.70;5.10;;;;;;;;;;5104910;28;20510;-80
2022/06/14 04:40:04;;;;;;;61.20;4.90;;;;;;;;;;5104296;28;20478;-80
2022/06/14 04:42:33;;;;;;;64.80;4.40;;;;;;;;;;5104619;28;20549;-80
2022/06/14 04:45:07;;;;;;;60.57;4.43;;;;;;;;;;5104412;28;20509;-80
2022/06/14 04:47:38;;;;;;;60.97;4.73;;;;;;;;;;5105002;28;20993;-80
2022/06/14 04:50:07;;;;;;;59.87;4.50;;;;;;;;;;5104534;28;21014;-80
2022/06/14 04:52:36;;;;;;;60.33;4.60;;;;;;;;;;5103669;28;20561;-80
2022/06/14 04:55:06;;;;;;;64.37;5.20;;;;;;;;;;5103210;28;20438;-81
2022/06/14 04:57:35;;;;;;;60.87;4.87;;;;;;;;;;5102653;28;20449;-80
2022/06/14 05:00:08;;;;;;;61.73;4.60;;;;;;;;;;5103056;28;20485;-80
2022/06/14 05:02:37;;;;;;;61.07;4.90;;;;;;;;;;5102441;28;20565;-79
2022/06/14 05:05:07;;;;;;;63.17;5.07;;;;;;;;;;5107459;28;20438;-79
2022/06/14 05:07:37;;;;;;;61.03;4.33;;;;;;;;;;5101471;28;20538;-79
2022/06/14 05:10:07;;;;;;;62.60;5.20;;;;;;;;;;5101715;28;20442;-79
2022/06/14 05:12:42;;;;;;;63.97;5.03;;;;;;;;;;5101374;28;20470;-79
2022/06/14 05:15:11;;;;;;;62.20;5.67;;;;;;;;;;5101158;28;20518;-79
2022/06/14 05:17:43;;;;;;;61.23;5.33;;;;;;;;;;5101292;28;20502;-81
2022/06/14 05:20:13;;;;;;;60.93;4.80;;;;;;;;;;5102423;28;20553;-81
2022/06/14 05:22:43;;;;;;;63.00;6.47;;;;;;;;;;5102403;28;20474;-80
2022/06/14 05:25:10;;;;;;;61.97;5.10;;;;;;;;;;5102703;28;20529;-81
2022/06/14 05:27:44;;;;;;;60.20;4.00;;;;;;;;;;5102568;28;20506;-81
2022/06/14 05:30:18;;;;;;;60.97;5.17;;;;;;;;;;5101737;28;20450;-81
2022/06/14 05:32:52;;;;;;;61.10;5.00;;;;;;;;;;5102226;28;20566;-81
2022/06/14 05:35:25;;;;;;;60.50;4.80;;;;;;;;;;5102251;28;20474;-80
2022/06/14 05:37:54;;;;;;;61.60;4.83;;;;;;;;;;5101608;28;20486;-81
2022/06/14 05:40:25;;;;;;;61.27;5.07;;;;;;;;;;5101966;28;20457;-80
2022/06/14 05:42:55;;;;;;;61.60;4.40;;;;;;;;;;5101263;28;20548;-80
2022/06/14 05:45:23;;;;;;;64.23;5.73;;;;;;;;;;5101301;28;20867;-80
2022/06/14 05:47:55;;;;;;;61.37;4.80;;;;;;;;;;5100274;28;20865;-81
2022/06/14 05:50:25;;;;;;;61.30;5.00;;;;;;;;;;5101497;28;20497;-80
2022/06/14 05:52:55;;;;;;;62.27;5.70;;;;;;;;;;5100391;28;20509;-81
2022/06/14 05:55:25;;;;;;;60.70;4.77;;;;;;;;;;5100384;28;20535;-81
2022/06/14 05:57:54;;;;;;;60.90;4.97;;;;;;;;;;5099183;28;20529;-81
2022/06/14 06:00:23;;;;;;;67.23;6.97;;;;;;;;;;5099618;28;20954;-81
2022/06/14 06:02:55;;;;;;;60.80;4.67;;;;;;;;;;5099441;28;20466;-80
2022/06/14 06:05:25;;;;;;;64.13;5.47;;;;;;;;;;5100770;28;20471;-80
2022/06/14 06:07:54;;;;;;;62.30;6.00;;;;;;;;;;5098543;28;20490;-80
2022/06/14 06:10:25;;;;;;;61.43;5.83;;;;;;;;;;5099414;28;20455;-81
2022/06/14 06:12:55;;;;;;;60.47;5.20;;;;;;;;;;5099628;28;20545;-80
2022/06/14 06:15:24;;;;;;;61.30;4.90;;;;;;;;;;5100246;28;20545;-81
2022/06/14 06:17:54;;;;;;;64.40;5.53;;;;;;;;;;5100552;28;20510;-81
2022/06/14 06:20:27;;;;;;;61.70;5.90;;;;;;;;;;5099907;28;21077;-82
2022/06/14 06:22:58;;;;;;;60.90;4.90;;;;;;;;;;5099506;28;20512;-81
2022/06/14 06:25:27;;;;;;;63.30;4.90;;;;;;;;;;5100027;28;20450;-81
2022/06/14 06:27:58;;;;;;;64.67;5.27;;;;;;;;;;5099234;28;20578;-81
2022/06/14 06:30:26;;;;;;;61.80;5.63;;;;;;;;;;5099874;28;20453;-81
2022/06/14 06:32:55;;;;;;;60.70;4.77;;;;;;;;;;5099292;28;20562;-81
2022/06/14 06:35:25;;;;;;;61.67;5.10;;;;;;;;;;5100099;28;20478;-82
2022/06/14 06:37:54;;;;;;;64.17;5.00;;;;;;;;;;5098741;28;20577;-82
2022/06/14 06:40:23;;;;;;;60.77;4.80;;;;;;;;;;5099431;28;20530;-82
2022/06/14 06:42:53;;;;;;;60.83;4.60;;;;;;;;;;5100213;28;20531;-82
2022/06/14 06:45:22;;;;;;;61.10;4.53;;;;;;;;;;5106411;28;20438;-82
2022/06/14 06:47:53;;;;;;;60.33;4.70;;;;;;;;;;5100344;28;20486;-81
2022/06/14 06:50:24;;;;;;;61.17;4.97;;;;;;;;;;5100311;28;20513;-81
2022/06/14 06:52:55;;;;;;;59.93;4.37;;;;;;;;;;5100258;28;20508;-81
2022/06/14 06:55:26;;;;;;;60.07;4.47;;;;;;;;;;5099308;28;20519;-82
2022/06/14 06:57:55;;;;;;;60.87;4.30;;;;;;;;;;5099287;28;20509;-82
2022/06/14 07:00:23;;;;;;;61.90;4.57;;;;;;;;;;5101226;28;20457;-81
2022/06/14 07:02:52;;;;;;;63.97;5.50;;;;;;;;;;5101250;28;20881;-82
2022/06/14 07:05:20;;;;;;;60.67;4.30;;;;;;;;;;5099667;28;20453;-81
2022/06/14 07:07:57;;;;;;;60.17;4.07;;;;;;;;;;5099529;28;20574;-80
2022/06/14 07:10:27;;;;;;;59.90;4.20;;;;;;;;;;5098902;28;20462;-81
2022/06/14 07:12:57;;;;;;;60.60;4.70;;;;;;;;;;5099075;28;20980;-81
2022/06/14 07:15:27;;;;;;;61.80;4.90;;;;;;;;;;5098185;28;20440;-81
2022/06/14 07:17:57;;;;;;;61.60;4.47;;;;;;;;;;5098371;28;21036;-81
2022/06/14 07:20:32;;;;;;;60.17;4.47;;;;;;;;;;5101881;28;20534;-80
2022/06/14 07:23:03;;;;;;;60.87;4.13;;;;;;;;;;5101620;28;20467;-81
2022/06/14 07:25:32;;;;;;;61.70;5.27;;;;;;;;;;5097366;28;20444;-79
2022/06/14 07:28:03;;;;;;;62.30;4.53;;;;;;;;;;5098539;28;20494;-79
2022/06/14 07:30:33;;;;;;;60.77;4.60;;;;;;;;;;5098934;28;20461;-79
2022/06/14 07:33:01;;;;;;;60.97;4.60;;;;;;;;;;5098554;28;20498;-80
2022/06/14 07:35:31;;;;;;;61.07;4.50;;;;;;;;;;5099238;28;20526;-80
2022/06/14 07:38:02;;;;;;;61.83;4.20;;;;;;;;;;5098316;28;20461;-80
2022/06/14 07:40:32;;;;;;;60.23;4.40;;;;;;;;;;5099672;28;20476;-80
2022/06/14 07:43:03;;;;;;;60.00;4.30;;;;;;;;;;5099708;28;20564;-80
2022/06/14 07:45:33;;;;;;;62.07;4.40;;;;;;;;;;5099309;28;20451;-80
2022/06/14 07:48:03;;;;;;;60.27;4.93;;;;;;;;;;5098104;28;20584;-79
2022/06/14 07:50:35;;;;;;;61.97;5.07;;;;;;;;;;5098936;28;20449;-79
2022/06/14 07:53:06;;;;;;;61.50;4.80;;;;;;;;;;5098542;28;20903;-80
2022/06/14 07:55:37;;;;;;;61.30;3.87;;;;;;;;;;5099295;28;20461;-80
2022/06/14 07:58:06;;;;;;;63.17;4.53;;;;;;;;;;5098170;28;20549;-79
2022/06/14 08:03:23;;;;;;;60.13;4.77;;;;;;;;;;5098578;28;20461;-80
2022/06/14 08:05:52;;;;;;;60.07;4.30;;;;;;;;;;5098145;28;20955;-80
2022/06/14 08:08:21;;;;;;;63.53;4.60;;;;;;;;;;5098397;28;20553;-80
2022/06/14 08:10:53;;;;;;;61.00;5.03;;;;;;;;;;5097666;28;20517;-80
2022/06/14 08:13:21;;;;;;;62.50;4.33;;;;;;;;;;5100492;28;20516;-80
2022/06/14 08:15:50;;;;;;;64.30;5.13;;;;;;;;;;5101048;28;20446;-79
2022/06/14 08:18:18;;;;;;;61.10;4.93;;;;;;;;;;5099866;28;20450;-80
2022/06/14 08:20:47;;;;;;;60.77;4.70;;;;;;;;;;5099892;28;20497;-80
2022/06/14 08:23:16;;;;;;;60.57;4.73;;;;;;;;;;5099836;28;20466;-80
2022/06/14 08:25:44;;;;;;;61.33;4.20;;;;;;;;;;5100269;28;20457;-80
2022/06/14 08:28:15;;;;;;;61.23;4.30;;;;;;;;;;5099438;28;21014;-81
2022/06/14 08:30:45;;;;;;;62.40;4.70;;;;;;;;;;5098038;28;20504;-80
2022/06/14 08:33:15;;;;;;;60.00;4.67;;;;;;;;;;5099369;28;20556;-80
2022/06/14 08:35:45;;;;;;;61.90;5.43;;;;;;;;;;5099164;28;20535;-79
2022/06/14 08:38:14;;;;;;;62.87;5.00;;;;;;;;;;5097942;28;20546;-81
2022/06/14 08:40:47;;;;;;;59.67;4.20;;;;;;;;;;5105565;28;20505;-80
2022/06/14 08:43:20;;;;;;;60.40;4.40;;;;;;;;;;5098925;28;20900;-81
2022/06/14 08:45:50;;;;;;;61.50;4.20;;;;;;;;;;5099192;28;20527;-80
2022/06/14 08:48:30;;;;;;;61.17;4.37;;;;;;;;;;5098719;28;20575;-80
2022/06/14 08:50:59;;;;;;;62.37;5.07;;;;;;;;;;5098327;28;20458;-79
2022/06/14 08:53:38;;;;;;;59.37;3.77;;;;;;;;;;5098889;28;20454;-80
2022/06/14 08:56:10;;;;;;;59.97;4.00;;;;;;;;;;5097891;28;20900;-80
2022/06/14 08:58:52;;;;;;;60.87;4.10;;;;;;;;;;5098623;28;20462;-80
2022/06/14 09:01:26;;;;;;;63.80;4.00;;;;;;;;;;5086025;28;20544;-79
2022/06/14 09:04:10;;;;;;;61.10;4.53;;;;;;;;;;5098670;28;20457;-79
2022/06/14 09:06:53;;;;;;;59.60;3.57;;;;;;;;;;5098765;28;20543;-80
2022/06/14 09:09:47;;;;;;;62.17;4.50;;;;;;;;;;5098585;28;20484;-79
2022/06/14 09:12:29;;;;;;;59.27;3.60;;;;;;;;;;5097235;28;20456;-80
2022/06/14 09:15:11;;;;;;;62.57;4.37;;;;;;;;;;5094688;28;20490;-80
2022/06/14 09:17:57;;;;;;;62.00;5.27;;;;;;;;;;5097179;28;20623;-80
2022/06/14 09:20:30;;;;;;;62.40;3.60;;;;;;;;;;5097795;28;20533;-80
2022/06/14 09:23:05;;;;;;;59.67;3.73;;;;;;;;;;5096801;28;20538;-80
2022/06/14 09:25:38;;;;;;;60.07;3.50;;;;;;;;;;5095821;28;20484;-80
2022/06/14 09:28:21;;;;;;;59.03;3.30;;;;;;;;;;5095955;28;20798;-80
2022/06/14 09:31:04;;;;;;;61.80;3.63;;;;;;;;;;5095938;28;20472;-80
2022/06/14 09:33:51;;;;;;;59.77;3.80;;;;;;;;;;5096069;28;20494;-80
2022/06/14 09:36:32;;;;;;;59.30;3.60;;;;;;;;;;5095891;28;20486;-81
2022/06/14 09:39:23;;;;;;;59.10;3.57;;;;;;;;;;5095453;28;20541;-81
2022/06/14 09:42:07;;;;;;;60.77;3.80;;;;;;;;;;5097379;28;20470;-80
2022/06/14 09:44:48;;;;;;;63.23;3.67;;;;;;;;;;5096147;28;20537;-80
2022/06/14 09:47:30;;;;;;;59.90;3.20;;;;;;;;;;5095171;28;20860;-80
2022/06/14 09:50:13;;;;;;;58.67;3.60;;;;;;;;;;5095153;28;20528;-80
2022/06/14 09:52:53;;;;;;;60.87;3.90;;;;;;;;;;5096129;28;20470;-80
2022/06/14 09:55:34;;;;;;;59.07;3.43;;;;;;;;;;5095547;28;20545;-80
2022/06/14 09:58:21;;;;;;;60.17;3.47;;;;;;;;;;5094529;28;20553;-80
2022/06/14 10:00:50;;;;;;;62.13;4.73;;;;;;;;;;5094968;28;20442;-81
2022/06/14 10:03:30;;;;;;;59.17;3.40;;;;;;;;;;5094240;28;20546;-80
2022/06/14 10:06:12;;;;;;;60.70;3.90;;;;;;;;;;5094222;28;20533;-81
2022/06/14 10:08:52;;;;;;;60.97;3.47;;;;;;;;;;5091576;28;20477;-80
2022/06/14 10:11:28;;;;;;;58.80;3.17;;;;;;;;;;5104542;28;20501;-82
2022/06/14 10:14:03;;;;;;;59.67;3.90;;;;;;;;;;5094913;28;20510;-81
2022/06/14 10:16:42;;;;;;;59.77;3.10;;;;;;;;;;5094488;28;20871;-80
2022/06/14 10:19:18;;;;;;;59.87;3.50;;;;;;;;;;5093898;28;20513;-80
2022/06/14 10:21:48;;;;;;;59.90;3.50;;;;;;;;;;5094921;28;20552;-82
2022/06/14 10:24:22;;;;;;;59.70;3.60;;;;;;;;;;5094354;28;20465;-81
2022/06/14 10:30:03;;;;;;;59.20;2.90;;;;;;;;;;5093953;28;20504;-79
2022/06/14 10:32:45;;;;;;;60.00;3.50;;;;;;;;;;5094083;28;20553;-80
2022/06/14 10:35:15;;;;;;;58.70;3.10;;;;;;;;;;5095429;28;20517;-81
2022/06/14 10:37:50;;;;;;;58.30;2.80;;;;;;;;;;5095553;28;20823;-80
2022/06/14 10:40:27;;;;;;;58.10;2.87;;;;;;;;;;5096472;28;20452;-81
2022/06/14 10:43:00;;;;;;;58.57;2.90;;;;;;;;;;5095628;28;20466;-80
2022/06/14 10:45:30;;;;;;;58.37;3.07;;;;;;;;;;5095974;28;20484;-81
2022/06/14 10:48:10;;;;;;;58.40;3.00;;;;;;;;;;5095486;28;20534;-81
2022/06/14 10:50:44;;;;;;;59.03;2.83;;;;;;;;;;5095877;28;20514;-80
2022/06/14 10:53:20;;;;;;;58.27;3.30;;;;;;;;;;5094183;28;20490;-78
2022/06/14 10:56:08;;;;;;;59.33;3.67;;;;;;;;;;5098748;28;20537;-81
2022/06/14 10:59:01;;;;;;;58.80;3.10;;;;;;;;;;5098026;28;20422;-81
2022/06/14 11:01:38;;;;;;;62.57;2.73;;;;;;;;;;5098817;28;20465;-82
2022/06/14 11:04:09;;;;;;;59.10;3.33;;;;;;;;;;5098508;28;20871;-82
2022/06/14 11:06:55;;;;;;;58.23;3.07;;;;;;;;;;5098849;28;20525;-81
2022/06/14 11:09:27;;;;;;;61.10;2.67;;;;;;;;;;5098116;28;21117;-83
2022/06/14 11:12:03;;;;;;;58.10;2.83;;;;;;;;;;5098536;28;20853;-80
2022/06/14 11:14:34;;;;;;;59.97;3.17;;;;;;;;;;5098611;28;20537;-82
2022/06/14 11:17:10;;;;;;;57.97;2.83;;;;;;;;;;5098369;28;20915;-81
2022/06/14 11:19:47;;;;;;;60.47;3.03;;;;;;;;;;5098369;28;20926;-81
2022/06/14 11:22:20;;;;;;;57.47;2.40;;;;;;;;;;5098131;28;20502;-81
2022/06/14 11:24:54;;;;;;;58.57;2.80;;;;;;;;;;5098761;28;20458;-80
2022/06/14 11:27:25;;;;;;;57.10;2.70;;;;;;;;;;5098225;28;20549;-83
2022/06/14 11:30:02;;;;;;;57.70;2.67;;;;;;;;;;5098650;28;20549;-81
2022/06/14 11:32:30;;;;;;;57.47;2.50;;;;;;;;;;5098631;28;20497;-82
2022/06/14 11:35:03;;;;;;;58.30;3.03;;;;;;;;;;5098413;28;20537;-81
2022/06/14 11:37:41;;;;;;;59.17;3.00;;;;;;;;;;5098013;28;20466;-81
2022/06/14 11:40:11;;;;;;;57.67;2.63;;;;;;;;;;5098252;28;20474;-81
2022/06/14 11:42:43;;;;;;;57.87;3.03;;;;;;;;;;5098099;28;20490;-81
2022/06/14 11:45:20;;;;;;;59.17;2.90;;;;;;;;;;5098713;28;20478;-82
2022/06/14 11:47:51;;;;;;;59.07;3.20;;;;;;;;;;5097698;28;20434;-82
2022/06/14 11:50:23;;;;;;;57.60;2.60;;;;;;;;;;5098087;28;20576;-81
2022/06/14 11:53:11;;;;;;;57.60;2.70;;;;;;;;;;5097346;28;20562;-80
2022/06/14 11:55:40;;;;;;;58.80;2.70;;;;;;;;;;5092824;28;20463;-80
2022/06/14 11:58:11;;;;;;;60.47;2.73;;;;;;;;;;5097537;28;20545;-81
2022/06/14 12:00:49;;;;;;;57.77;2.80;;;;;;;;;;5097813;28;20450;-81
2022/06/14 12:03:24;;;;;;;57.80;2.67;;;;;;;;;;5098168;28;20849;-81
2022/06/14 12:05:55;;;;;;;57.50;2.60;;;;;;;;;;5096006;28;20528;-81
2022/06/14 12:08:30;;;;;;;59.27;2.97;;;;;;;;;;5097321;28;20525;-81
2022/06/14 12:10:59;;;;;;;59.37;2.60;;;;;;;;;;5097367;28;20572;-80
2022/06/14 12:13:33;;;;;;;57.70;2.50;;;;;;;;;;5097233;28;20473;-81
2022/06/14 12:16:06;;;;;;;58.50;2.80;;;;;;;;;;5097261;28;20449;-81
2022/06/14 12:18:35;;;;;;;58.47;2.70;;;;;;;;;;5097672;28;20519;-81
2022/06/14 12:21:06;;;;;;;58.57;2.60;;;;;;;;;;5097612;28;20905;-83
2022/06/14 12:23:35;;;;;;;58.37;2.77;;;;;;;;;;5097674;28;20454;-81
2022/06/14 12:28:52;;;;;;;58.20;2.70;;;;;;;;;;5096643;28;20464;-81
2022/06/14 12:31:23;;;;;;;58.80;2.60;;;;;;;;;;5096582;28;20529;-81
2022/06/14 12:33:53;;;;;;;59.20;2.30;;;;;;;;;;5096577;28;20897;-83
2022/06/14 12:36:26;;;;;;;57.57;2.67;;;;;;;;;;5097129;28;20692;-80
2022/06/14 12:38:57;;;;;;;59.00;2.70;;;;;;;;;;5097385;28;20463;-81
2022/06/14 12:41:28;;;;;;;58.37;2.87;;;;;;;;;;5097391;28;20781;-81
2022/06/14 12:44:02;;;;;;;58.00;2.43;;;;;;;;;;5097210;28;20550;-81
2022/06/14 12:46:33;;;;;;;58.07;3.70;;;;;;;;;;5097502;28;20477;-82
2022/06/14 12:49:03;;;;;;;57.87;3.23;;;;;;;;;;5096733;28;20459;-82
2022/06/14 12:51:32;;;;;;;57.17;2.70;;;;;;;;;;5097215;28;20525;-81
2022/06/14 12:54:04;;;;;;;57.87;2.80;;;;;;;;;;5097052;28;20462;-84
2022/06/14 12:56:34;;;;;;;60.70;2.87;;;;;;;;;;5097444;28;20531;-82
2022/06/14 12:59:07;;;;;;;58.57;3.00;;;;;;;;;;5096875;28;20482;-81
2022/06/14 13:01:39;;;;;;;57.80;2.90;;;;;;;;;;5106512;28;20458;-86
2022/06/14 13:04:09;;;;;;;58.40;2.73;;;;;;;;;;5104836;28;20462;-80
2022/06/14 13:06:49;;;;;;;57.80;2.77;;;;;;;;;;5097067;28;20434;-81
2022/06/14 13:09:20;;;;;;;60.03;3.33;;;;;;;;;;5097655;28;21017;-81
2022/06/14 13:11:52;;;;;;;57.33;2.37;;;;;;;;;;5097454;28;20545;-81
2022/06/14 13:14:22;;;;;;;58.10;2.90;;;;;;;;;;5097158;28;20461;-80
2022/06/14 13:17:02;;;;;;;57.50;2.80;;;;;;;;;;5096440;28;20533;-81
2022/06/14 13:19:33;;;;;;;57.83;2.63;;;;;;;;;;5098288;28;20490;-80
2022/06/14 13:22:14;;;;;;;57.90;2.53;;;;;;;;;;5097944;28;20874;-80
2022/06/14 13:24:45;;;;;;;58.40;2.70;;;;;;;;;;5098094;28;20454;-80
2022/06/14 13:27:21;;;;;;;57.87;2.43;;;;;;;;;;5098447;28;20434;-81
2022/06/14 13:29:53;;;;;;;57.97;2.80;;;;;;;;;;5098972;28;20576;-80
2022/06/14 13:32:40;;;;;;;57.90;3.13;;;;;;;;;;5099417;28;20470;-81
2022/06/14 13:35:23;;;;;;;58.17;3.00;;;;;;;;;;5098746;28;20484;-81
2022/06/14 13:37:53;;;;;;;57.70;2.50;;;;;;;;;;5099092;28;20485;-81
2022/06/14 13:40:23;;;;;;;57.77;2.63;;;;;;;;;;5101275;28;20515;-82
2022/06/14 13:42:53;;;;;;;58.20;2.90;;;;;;;;;;5099217;28;20486;-81
2022/06/14 13:45:24;;;;;;;58.20;2.67;;;;;;;;;;5099742;28;20941;-81
2022/06/14 13:47:55;;;;;;;57.67;2.77;;;;;;;;;;5099791;28;20500;-82
2022/06/14 13:50:24;;;;;;;57.70;2.67;;;;;;;;;;5101027;28;20506;-81
2022/06/14 13:52:54;;;;;;;58.27;2.93;;;;;;;;;;5099866;28;20490;-81
2022/06/14 13:55:24;;;;;;;57.87;2.80;;;;;;;;;;5101557;28;20457;-81
2022/06/14 13:57:54;;;;;;;61.30;3.37;;;;;;;;;;5099816;28;20538;-81
2022/06/14 14:00:23;;;;;;;60.47;3.33;;;;;;;;;;5099211;28;20525;-79
2022/06/14 14:02:53;;;;;;;57.80;2.67;;;;;;;;;;5098195;28;20569;-80
2022/06/14 14:05:27;;;;;;;58.17;2.83;;;;;;;;;;5098272;28;20525;-80
2022/06/14 14:08:03;;;;;;;60.10;3.10;;;;;;;;;;5099084;28;20525;-81
2022/06/14 14:10:37;;;;;;;57.77;2.87;;;;;;;;;;5098733;28;20510;-81
2022/06/14 14:13:07;;;;;;;57.77;2.60;;;;;;;;;;5095381;28;20550;-79
2022/06/14 14:15:38;;;;;;;58.37;2.40;;;;;;;;;;5094612;28;20435;-79
2022/06/14 14:18:08;;;;;;;57.77;2.60;;;;;;;;;;5094606;28;20435;-80
2022/06/14 14:20:53;;;;;;;58.17;2.80;;;;;;;;;;5094448;28;20531;-79
2022/06/14 14:23:25;;;;;;;57.80;2.63;;;;;;;;;;5094864;28;20516;-79
2022/06/14 14:25:57;;;;;;;58.00;3.37;;;;;;;;;;5094456;28;20446;-82
2022/06/14 14:28:28;;;;;;;58.13;3.17;;;;;;;;;;5099161;28;20448;-81
2022/06/14 14:30:59;;;;;;;58.67;2.83;;;;;;;;;;5103918;28;20470;-81
2022/06/14 14:33:35;;;;;;;58.60;3.00;;;;;;;;;;5103757;28;20466;-81
2022/06/14 14:36:05;;;;;;;59.13;3.10;;;;;;;;;;5103082;28;20485;-81
2022/06/14 14:38:37;;;;;;;57.70;2.70;;;;;;;;;;5103134;28;20458;-82
2022/06/14 14:43:51;;;;;;;57.50;2.70;;;;;;;;;;5103041;28;20450;-81
2022/06/14 14:46:23;;;;;;;58.10;2.70;;;;;;;;;;5102345;28;20518;-82
2022/06/14 14:48:51;;;;;;;57.37;2.37;;;;;;;;;;5102156;28;20454;-81
2022/06/14 14:51:23;;;;;;;57.70;2.80;;;;;;;;;;5102946;28;20580;-82
2022/06/14 14:54:00;;;;;;;57.50;2.87;;;;;;;;;;5102633;28;20457;-81
2022/06/14 14:56:29;;;;;;;57.90;2.70;;;;;;;;;;5101592;28;20901;-80
2022/06/14 14:59:00;;;;;;;57.63;2.73;;;;;;;;;;5101262;28;20529;-82
2022/06/14 15:07:09;;;;;;;59.00;3.10;;;;;;;;;;5101608;28;20418;-82
2022/06/14 15:09:41;;;;;;;57.90;2.90;;;;;;;;;;5100925;28;20911;-82
2022/06/14 15:12:17;;;;;;;58.40;3.10;;;;;;;;;;5100626;28;20534;-82
2022/06/14 15:15:00;;;;;;;58.40;3.30;;;;;;;;;;5102277;28;20541;-81
2022/06/14 15:19:54;;;;;;;58.80;2.93;;;;;;;;;;5101970;28;20454;-80
2022/06/14 15:20:30;;;;;;;58.87;3.20;;;;;;;;;;5106984;28;20442;-84
2022/06/14 15:22:57;;;;;;;58.07;2.80;;;;;;;;;;5106578;28;20490;-82